![]() |
EMODnet Physics ERDDAP
Easier access to scientific data |
log in|
Brought to you by EMODnet Physics |
| Dataset Title: | NDBC - Collection of dew point temperature (DEWT) TimeSeries - IN SITU MultiPointTimeSeriesObservation
|
| Institution: | NDBC (Dataset ID: TS_DEWT_NDBC) |
| Information: | Summary
| License
| FGDC
| ISO 19115
| Metadata
| Background
| Subset
| Data Access Form
| Make a graph
|
| Name | Last modified | Size | Description | |
|---|---|---|---|---|
| Parent Directory | - | - | ||
| 42060_TS_DEWT_012011.nc | 26-Oct-2024 16:47 | 450484 | ||
| 42060_TS_DEWT_012012.nc | 26-Oct-2024 16:47 | 450479 | ||
| 42060_TS_DEWT_012013.nc | 26-Oct-2024 16:47 | 451553 | ||
| 42060_TS_DEWT_012014.nc | 26-Oct-2024 16:47 | 450188 | ||
| 42060_TS_DEWT_012015.nc | 26-Oct-2024 16:47 | 449672 | ||
| 42060_TS_DEWT_012016.nc | 26-Oct-2024 16:47 | 450887 | ||
| 42060_TS_DEWT_012019.nc | 26-Oct-2024 16:47 | 1265633 | ||
| 42060_TS_DEWT_012021.nc | 26-Oct-2024 16:47 | 993152 | ||
| 42060_TS_DEWT_012022.nc | 26-Oct-2024 16:47 | 1266648 | ||
| 42060_TS_DEWT_012023.nc | 26-Oct-2024 16:47 | 451357 | ||
| 42060_TS_DEWT_012025.nc | 07-Feb-2025 09:45 | 450548 | ||
| 42060_TS_DEWT_012026.nc | 02-Feb-2026 17:37 | 449500 | ||
| 42060_TS_DEWT_022011.nc | 26-Oct-2024 16:47 | 449774 | ||
| 42060_TS_DEWT_022012.nc | 26-Oct-2024 16:47 | 451523 | ||
| 42060_TS_DEWT_022013.nc | 26-Oct-2024 16:47 | 446397 | ||
| 42060_TS_DEWT_022014.nc | 26-Oct-2024 16:47 | 451279 | ||
| 42060_TS_DEWT_022015.nc | 26-Oct-2024 16:47 | 449835 | ||
| 42060_TS_DEWT_022016.nc | 26-Oct-2024 16:47 | 449983 | ||
| 42060_TS_DEWT_022019.nc | 26-Oct-2024 16:48 | 441299 | ||
| 42060_TS_DEWT_022021.nc | 26-Oct-2024 16:48 | 451029 | ||
| 42060_TS_DEWT_022022.nc | 26-Oct-2024 16:48 | 438957 | ||
| 42060_TS_DEWT_022023.nc | 26-Oct-2024 16:48 | 450164 | ||
| 42060_TS_DEWT_022025.nc | 01-Mar-2025 06:40 | 450220 | ||
| 42060_TS_DEWT_022026.nc | 01-Mar-2026 06:46 | 1263796 | ||
| 42060_TS_DEWT_032011.nc | 26-Oct-2024 16:48 | 1264334 | ||
| 42060_TS_DEWT_032012.nc | 26-Oct-2024 16:48 | 1266118 | ||
| 42060_TS_DEWT_032013.nc | 26-Oct-2024 16:48 | 1010026 | ||
| 42060_TS_DEWT_032014.nc | 26-Oct-2024 16:48 | 450069 | ||
| 42060_TS_DEWT_032015.nc | 26-Oct-2024 16:48 | 448565 | ||
| 42060_TS_DEWT_032016.nc | 26-Oct-2024 16:48 | 449378 | ||
| 42060_TS_DEWT_032017.nc | 26-Oct-2024 16:48 | 449335 | ||
| 42060_TS_DEWT_032018.nc | 26-Oct-2024 16:48 | 449183 | ||
| 42060_TS_DEWT_032019.nc | 26-Oct-2024 16:48 | 448220 | ||
| 42060_TS_DEWT_032021.nc | 26-Oct-2024 16:48 | 449215 | ||
| 42060_TS_DEWT_032022.nc | 26-Oct-2024 16:48 | 449254 | ||
| 42060_TS_DEWT_032023.nc | 26-Oct-2024 16:48 | 433956 | ||
| 42060_TS_DEWT_032025.nc | 02-Apr-2025 05:20 | 449358 | ||
| 42060_TS_DEWT_032026.nc | 21-Mar-2026 09:26 | 449189 | ||
| 42060_TS_DEWT_042009.nc | 26-Oct-2024 16:48 | 1112614 | ||
| 42060_TS_DEWT_042011.nc | 26-Oct-2024 16:48 | 1110495 | ||
| 42060_TS_DEWT_042012.nc | 26-Oct-2024 16:48 | 1111017 | ||
| 42060_TS_DEWT_042013.nc | 26-Oct-2024 16:49 | 982172 | ||
| 42060_TS_DEWT_042014.nc | 26-Oct-2024 16:49 | 449169 | ||
| 42060_TS_DEWT_042015.nc | 26-Oct-2024 16:49 | 451652 | ||
| 42060_TS_DEWT_042016.nc | 26-Oct-2024 16:49 | 451098 | ||
| 42060_TS_DEWT_042017.nc | 26-Oct-2024 16:49 | 449988 | ||
| 42060_TS_DEWT_042018.nc | 26-Oct-2024 16:49 | 450296 | ||
| 42060_TS_DEWT_042019.nc | 26-Oct-2024 16:49 | 443918 | ||
| 42060_TS_DEWT_042020.nc | 26-Oct-2024 16:49 | 450966 | ||
| 42060_TS_DEWT_042021.nc | 26-Oct-2024 16:49 | 450539 | ||
| 42060_TS_DEWT_042022.nc | 26-Oct-2024 16:49 | 447706 | ||
| 42060_TS_DEWT_042023.nc | 26-Oct-2024 16:49 | 442711 | ||
| 42060_TS_DEWT_042025.nc | 01-May-2025 04:03 | 450632 | ||
| 42060_TS_DEWT_052009.nc | 26-Oct-2024 16:49 | 451803 | ||
| 42060_TS_DEWT_052010.nc | 26-Oct-2024 16:49 | 1264580 | ||
| 42060_TS_DEWT_052011.nc | 26-Oct-2024 16:49 | 1161416 | ||
| 42060_TS_DEWT_052012.nc | 26-Oct-2024 16:49 | 1168591 | ||
| 42060_TS_DEWT_052013.nc | 26-Oct-2024 16:49 | 1265495 | ||
| 42060_TS_DEWT_052014.nc | 26-Oct-2024 16:49 | 449120 | ||
| 42060_TS_DEWT_052015.nc | 26-Oct-2024 16:50 | 448769 | ||
| 42060_TS_DEWT_052016.nc | 26-Oct-2024 16:50 | 448648 | ||
| 42060_TS_DEWT_052017.nc | 26-Oct-2024 16:50 | 448703 | ||
| 42060_TS_DEWT_052018.nc | 26-Oct-2024 16:50 | 449288 | ||
| 42060_TS_DEWT_052019.nc | 26-Oct-2024 16:50 | 450110 | ||
| 42060_TS_DEWT_052020.nc | 26-Oct-2024 16:50 | 450061 | ||
| 42060_TS_DEWT_052021.nc | 26-Oct-2024 16:50 | 449309 | ||
| 42060_TS_DEWT_052022.nc | 26-Oct-2024 16:50 | 449871 | ||
| 42060_TS_DEWT_052023.nc | 26-Oct-2024 16:50 | 449731 | ||
| 42060_TS_DEWT_052025.nc | 01-Jun-2025 04:11 | 449204 | ||
| 42060_TS_DEWT_062009.nc | 26-Oct-2024 16:50 | 1113860 | ||
| 42060_TS_DEWT_062010.nc | 26-Oct-2024 16:50 | 996457 | ||
| 42060_TS_DEWT_062011.nc | 26-Oct-2024 16:50 | 1046394 | ||
| 42060_TS_DEWT_062012.nc | 26-Oct-2024 16:50 | 1112309 | ||
| 42060_TS_DEWT_062013.nc | 26-Oct-2024 16:50 | 449867 | ||
| 42060_TS_DEWT_062014.nc | 26-Oct-2024 16:51 | 450504 | ||
| 42060_TS_DEWT_062015.nc | 26-Oct-2024 16:51 | 449627 | ||
| 42060_TS_DEWT_062016.nc | 26-Oct-2024 16:51 | 451118 | ||
| 42060_TS_DEWT_062017.nc | 26-Oct-2024 16:51 | 449763 | ||
| 42060_TS_DEWT_062018.nc | 26-Oct-2024 16:51 | 450872 | ||
| 42060_TS_DEWT_062019.nc | 26-Oct-2024 16:51 | 450633 | ||
| 42060_TS_DEWT_062020.nc | 26-Oct-2024 16:51 | 450354 | ||
| 42060_TS_DEWT_062021.nc | 26-Oct-2024 16:51 | 444603 | ||
| 42060_TS_DEWT_062022.nc | 26-Oct-2024 16:51 | 429941 | ||
| 42060_TS_DEWT_062023.nc | 26-Oct-2024 16:51 | 450230 | ||
| 42060_TS_DEWT_062025.nc | 01-Jul-2025 04:13 | 451831 | ||
| 42060_TS_DEWT_072009.nc | 26-Oct-2024 16:51 | 450344 | ||
| 42060_TS_DEWT_072010.nc | 26-Oct-2024 16:51 | 1262506 | ||
| 42060_TS_DEWT_072011.nc | 26-Oct-2024 16:51 | 1182123 | ||
| 42060_TS_DEWT_072012.nc | 26-Oct-2024 16:51 | 419385 | ||
| 42060_TS_DEWT_072013.nc | 26-Oct-2024 16:51 | 450683 | ||
| 42060_TS_DEWT_072014.nc | 26-Oct-2024 16:51 | 450599 | ||
| 42060_TS_DEWT_072015.nc | 26-Oct-2024 16:51 | 446613 | ||
| 42060_TS_DEWT_072016.nc | 26-Oct-2024 16:51 | 450211 | ||
| 42060_TS_DEWT_072017.nc | 26-Oct-2024 16:52 | 450184 | ||
| 42060_TS_DEWT_072018.nc | 26-Oct-2024 16:52 | 450770 | ||
| 42060_TS_DEWT_072019.nc | 26-Oct-2024 16:52 | 431482 | ||
| 42060_TS_DEWT_072020.nc | 26-Oct-2024 16:52 | 451104 | ||
| 42060_TS_DEWT_072021.nc | 26-Oct-2024 16:52 | 451463 | ||
| 42060_TS_DEWT_072022.nc | 26-Oct-2024 16:52 | 451114 | ||
| 42060_TS_DEWT_072023.nc | 26-Oct-2024 16:52 | 450260 | ||
| 42060_TS_DEWT_072025.nc | 01-Aug-2025 04:21 | 447705 | ||
| 42060_TS_DEWT_082009.nc | 26-Oct-2024 16:52 | 448029 | ||
| 42060_TS_DEWT_082010.nc | 26-Oct-2024 16:52 | 447791 | ||
| 42060_TS_DEWT_082011.nc | 26-Oct-2024 16:52 | 448387 | ||
| 42060_TS_DEWT_082012.nc | 26-Oct-2024 16:52 | 446974 | ||
| 42060_TS_DEWT_082013.nc | 26-Oct-2024 16:52 | 448755 | ||
| 42060_TS_DEWT_082014.nc | 26-Oct-2024 16:52 | 448365 | ||
| 42060_TS_DEWT_082015.nc | 26-Oct-2024 16:52 | 434749 | ||
| 42060_TS_DEWT_082017.nc | 26-Oct-2024 16:52 | 448257 | ||
| 42060_TS_DEWT_082018.nc | 26-Oct-2024 16:52 | 447608 | ||
| 42060_TS_DEWT_082019.nc | 26-Oct-2024 16:52 | 447863 | ||
| 42060_TS_DEWT_082020.nc | 26-Oct-2024 16:52 | 450363 | ||
| 42060_TS_DEWT_082021.nc | 26-Oct-2024 16:52 | 450245 | ||
| 42060_TS_DEWT_082022.nc | 26-Oct-2024 16:52 | 450811 | ||
| 42060_TS_DEWT_082023.nc | 26-Oct-2024 16:52 | 450085 | ||
| 42060_TS_DEWT_082025.nc | 01-Sep-2025 04:26 | 450073 | ||
| 42060_TS_DEWT_092009.nc | 26-Oct-2024 16:52 | 450272 | ||
| 42060_TS_DEWT_092010.nc | 26-Oct-2024 16:52 | 450272 | ||
| 42060_TS_DEWT_092011.nc | 26-Oct-2024 16:52 | 451330 | ||
| 42060_TS_DEWT_092012.nc | 26-Oct-2024 16:53 | 451560 | ||
| 42060_TS_DEWT_092013.nc | 26-Oct-2024 16:53 | 450482 | ||
| 42060_TS_DEWT_092014.nc | 26-Oct-2024 16:53 | 451448 | ||
| 42060_TS_DEWT_092015.nc | 26-Oct-2024 16:53 | 449390 | ||
| 42060_TS_DEWT_092017.nc | 26-Oct-2024 16:53 | 449752 | ||
| 42060_TS_DEWT_092018.nc | 26-Oct-2024 16:53 | 450556 | ||
| 42060_TS_DEWT_092020.nc | 26-Oct-2024 16:53 | 449752 | ||
| 42060_TS_DEWT_092021.nc | 26-Oct-2024 16:53 | 449609 | ||
| 42060_TS_DEWT_092022.nc | 26-Oct-2024 16:53 | 449276 | ||
| 42060_TS_DEWT_092023.nc | 26-Oct-2024 16:53 | 448978 | ||
| 42060_TS_DEWT_092025.nc | 01-Oct-2025 04:02 | 449214 | ||
| 42060_TS_DEWT_102009.nc | 26-Oct-2024 16:53 | 450007 | ||
| 42060_TS_DEWT_102010.nc | 26-Oct-2024 16:53 | 449717 | ||
| 42060_TS_DEWT_102011.nc | 26-Oct-2024 16:53 | 450165 | ||
| 42060_TS_DEWT_102012.nc | 26-Oct-2024 16:53 | 450198 | ||
| 42060_TS_DEWT_102013.nc | 26-Oct-2024 16:53 | 451347 | ||
| 42060_TS_DEWT_102014.nc | 26-Oct-2024 16:53 | 450500 | ||
| 42060_TS_DEWT_102015.nc | 26-Oct-2024 16:53 | 446322 | ||
| 42060_TS_DEWT_102017.nc | 26-Oct-2024 16:53 | 450848 | ||
| 42060_TS_DEWT_102018.nc | 26-Oct-2024 16:53 | 450449 | ||
| 42060_TS_DEWT_102020.nc | 26-Oct-2024 16:53 | 451931 | ||
| 42060_TS_DEWT_102021.nc | 26-Oct-2024 16:53 | 449846 | ||
| 42060_TS_DEWT_102022.nc | 26-Oct-2024 16:53 | 450241 | ||
| 42060_TS_DEWT_102023.nc | 26-Oct-2024 16:54 | 451099 | ||
| 42060_TS_DEWT_102025.nc | 01-Nov-2025 06:02 | 451839 | ||
| 42060_TS_DEWT_112009.nc | 26-Oct-2024 16:54 | 449924 | ||
| 42060_TS_DEWT_112010.nc | 26-Oct-2024 16:54 | 449652 | ||
| 42060_TS_DEWT_112011.nc | 26-Oct-2024 16:54 | 448897 | ||
| 42060_TS_DEWT_112012.nc | 26-Oct-2024 16:54 | 446269 | ||
| 42060_TS_DEWT_112013.nc | 26-Oct-2024 16:54 | 448222 | ||
| 42060_TS_DEWT_112014.nc | 26-Oct-2024 16:54 | 448739 | ||
| 42060_TS_DEWT_112015.nc | 26-Oct-2024 16:54 | 449092 | ||
| 42060_TS_DEWT_112018.nc | 26-Oct-2024 16:54 | 450358 | ||
| 42060_TS_DEWT_112020.nc | 26-Oct-2024 16:54 | 431447 | ||
| 42060_TS_DEWT_112021.nc | 26-Oct-2024 16:54 | 446173 | ||
| 42060_TS_DEWT_112022.nc | 26-Oct-2024 16:54 | 448805 | ||
| 42060_TS_DEWT_112023.nc | 26-Oct-2024 16:54 | 450416 | ||
| 42060_TS_DEWT_112024.nc | 17-Jan-2025 14:37 | 450387 | ||
| 42060_TS_DEWT_112025.nc | 01-Dec-2025 06:41 | 449378 | ||
| 42060_TS_DEWT_122009.nc | 26-Oct-2024 16:54 | 450906 | ||
| 42060_TS_DEWT_122010.nc | 26-Oct-2024 16:54 | 443797 | ||
| 42060_TS_DEWT_122011.nc | 26-Oct-2024 16:54 | 451064 | ||
| 42060_TS_DEWT_122012.nc | 26-Oct-2024 16:54 | 447475 | ||
| 42060_TS_DEWT_122013.nc | 26-Oct-2024 16:54 | 450514 | ||
| 42060_TS_DEWT_122014.nc | 26-Oct-2024 16:54 | 442950 | ||
| 42060_TS_DEWT_122015.nc | 26-Oct-2024 16:54 | 450490 | ||
| 42060_TS_DEWT_122018.nc | 26-Oct-2024 16:54 | 450664 | ||
| 42060_TS_DEWT_122020.nc | 26-Oct-2024 16:54 | 450401 | ||
| 42060_TS_DEWT_122021.nc | 26-Oct-2024 16:54 | 450442 | ||
| 42060_TS_DEWT_122022.nc | 26-Oct-2024 16:54 | 450649 | ||
| 42060_TS_DEWT_122023.nc | 24-Dec-2024 06:59 | 437142 | ||
| 42060_TS_DEWT_122024.nc | 22-Jan-2025 16:27 | 450588 | ||
| 42060_TS_DEWT_122025.nc | 01-Jan-2026 06:39 | 439406 | ||